Terminal Aerodrome Forecast
Issued by NWS Brownsville, TX

Home | Current Version | Previous Version | Text Only | Print | Product List | Glossary On
Versions: 1 2 3 4 5 6 7 8 9 10 11 12 13 14 15 16 17 18 19 20 21 22 23 24 25 26 27
000
FTUS44 KBRO 222300
TAFMFE
TAF
KMFE 222320Z 2300/2324 05013G20KT P6SM FEW040
     FM230300 07004KT P6SM FEW025
      TEMPO 2311/2314 2SM BR
     FM231600 08008KT P6SM SCT025 SCT040=

USA.gov is the U.S. government's official web portal to all federal, state and local government web resources and services.